sensor_id;sensor_type;location;lat;lon;timestamp;temperature;humidity
68867;SHT30;56451;44.804;20.476;2023-06-04T00:01:05;20.79;68.47
68867;SHT30;56451;44.804;20.476;2023-06-04T00:03:31;20.83;68.53
68867;SHT30;56451;44.804;20.476;2023-06-04T00:05:58;20.79;68.61
68867;SHT30;56451;44.804;20.476;2023-06-04T00:08:23;20.76;68.61
68867;SHT30;56451;44.804;20.476;2023-06-04T00:10:49;20.73;68.57
68867;SHT30;56451;44.804;20.476;2023-06-04T00:13:15;20.73;68.61
68867;SHT30;56451;44.804;20.476;2023-06-04T00:15:41;20.73;68.73
68867;SHT30;56451;44.804;20.476;2023-06-04T00:18:07;20.69;68.77
68867;SHT30;56451;44.804;20.476;2023-06-04T00:20:33;20.68;68.87
68867;SHT30;56451;44.804;20.476;2023-06-04T00:22:59;20.65;68.82
68867;SHT30;56451;44.804;20.476;2023-06-04T00:25:25;20.67;68.85
68867;SHT30;56451;44.804;20.476;2023-06-04T00:27:51;20.67;68.72
68867;SHT30;56451;44.804;20.476;2023-06-04T00:30:17;20.69;68.76
68867;SHT30;56451;44.804;20.476;2023-06-04T00:32:43;20.67;68.76
68867;SHT30;56451;44.804;20.476;2023-06-04T00:35:09;20.65;68.86
68867;SHT30;56451;44.804;20.476;2023-06-04T00:37:35;20.64;68.95
68867;SHT30;56451;44.804;20.476;2023-06-04T00:40:02;20.67;68.97
68867;SHT30;56451;44.804;20.476;2023-06-04T00:42:28;20.65;69.05
68867;SHT30;56451;44.804;20.476;2023-06-04T00:44:55;20.68;69.06
68867;SHT30;56451;44.804;20.476;2023-06-04T00:47:23;20.64;69.09
68867;SHT30;56451;44.804;20.476;2023-06-04T00:49:49;20.64;69.11
68867;SHT30;56451;44.804;20.476;2023-06-04T00:52:16;20.64;69.18
68867;SHT30;56451;44.804;20.476;2023-06-04T00:54:42;20.58;69.33
68867;SHT30;56451;44.804;20.476;2023-06-04T00:57:08;20.56;69.37
68867;SHT30;56451;44.804;20.476;2023-06-04T00:59:36;20.58;69.29
68867;SHT30;56451;44.804;20.476;2023-06-04T01:02:19;20.64;69.17
68867;SHT30;56451;44.804;20.476;2023-06-04T01:07:27;20.59;69.07
68867;SHT30;56451;44.804;20.476;2023-06-04T01:09:56;20.58;68.99
68867;SHT30;56451;44.804;20.476;2023-06-04T01:12:22;20.61;68.83
68867;SHT30;56451;44.804;20.476;2023-06-04T01:14:48;20.61;68.74
68867;SHT30;56451;44.804;20.476;2023-06-04T01:17:22;20.58;68.70
68867;SHT30;56451;44.804;20.476;2023-06-04T01:25:05;20.58;68.60
68867;SHT30;56451;44.804;20.476;2023-06-04T01:27:35;20.56;68.70
68867;SHT30;56451;44.804;20.476;2023-06-04T01:30:02;20.52;68.75
68867;SHT30;56451;44.804;20.476;2023-06-04T01:32:29;20.58;68.65
68867;SHT30;56451;44.804;20.476;2023-06-04T01:34:56;20.54;68.50
68867;SHT30;56451;44.804;20.476;2023-06-04T01:37:21;20.52;68.42
68867;SHT30;56451;44.804;20.476;2023-06-04T01:39:47;20.49;68.38
68867;SHT30;56451;44.804;20.476;2023-06-04T01:42:14;20.51;68.35
68867;SHT30;56451;44.804;20.476;2023-06-04T01:44:40;20.51;68.27
68867;SHT30;56451;44.804;20.476;2023-06-04T01:47:06;20.47;68.34
68867;SHT30;56451;44.804;20.476;2023-06-04T01:49:32;20.44;68.56
68867;SHT30;56451;44.804;20.476;2023-06-04T01:51:58;20.37;68.71
68867;SHT30;56451;44.804;20.476;2023-06-04T01:54:24;20.35;68.84
68867;SHT30;56451;44.804;20.476;2023-06-04T01:56:50;20.37;68.89
68867;SHT30;56451;44.804;20.476;2023-06-04T01:59:16;20.37;68.98
68867;SHT30;56451;44.804;20.476;2023-06-04T02:01:42;20.33;69.07
68867;SHT30;56451;44.804;20.476;2023-06-04T02:04:09;20.34;69.12
68867;SHT30;56451;44.804;20.476;2023-06-04T02:06:34;20.31;69.19
68867;SHT30;56451;44.804;20.476;2023-06-04T02:09:02;20.27;69.30
68867;SHT30;56451;44.804;20.476;2023-06-04T02:11:29;20.28;69.27
68867;SHT30;56451;44.804;20.476;2023-06-04T02:13:55;20.25;69.33
68867;SHT30;56451;44.804;20.476;2023-06-04T02:16:20;20.24;69.44
68867;SHT30;56451;44.804;20.476;2023-06-04T02:18:46;20.23;69.40
68867;SHT30;56451;44.804;20.476;2023-06-04T02:21:12;20.17;69.53
68867;SHT30;56451;44.804;20.476;2023-06-04T02:23:40;20.14;69.53
68867;SHT30;56451;44.804;20.476;2023-06-04T02:26:06;20.13;69.68
68867;SHT30;56451;44.804;20.476;2023-06-04T02:28:32;20.06;69.79
68867;SHT30;56451;44.804;20.476;2023-06-04T02:33:53;20.04;70.02
68867;SHT30;56451;44.804;20.476;2023-06-04T02:36:19;20.04;70.05
68867;SHT30;56451;44.804;20.476;2023-06-04T02:38:45;19.98;70.18
68867;SHT30;56451;44.804;20.476;2023-06-04T02:41:10;20.00;70.14
68867;SHT30;56451;44.804;20.476;2023-06-04T02:43:36;19.97;70.21
68867;SHT30;56451;44.804;20.476;2023-06-04T02:46:02;20.00;70.11
68867;SHT30;56451;44.804;20.476;2023-06-04T02:48:28;20.01;70.00
68867;SHT30;56451;44.804;20.476;2023-06-04T02:50:54;19.98;70.08
68867;SHT30;56451;44.804;20.476;2023-06-04T02:53:20;20.04;69.85
68867;SHT30;56451;44.804;20.476;2023-06-04T02:55:47;20.03;69.78
68867;SHT30;56451;44.804;20.476;2023-06-04T02:58:13;20.04;69.76
68867;SHT30;56451;44.804;20.476;2023-06-04T03:00:39;20.07;69.64
68867;SHT30;56451;44.804;20.476;2023-06-04T03:03:05;20.14;69.46
68867;SHT30;56451;44.804;20.476;2023-06-04T03:05:31;20.10;69.54
68867;SHT30;56451;44.804;20.476;2023-06-04T03:08:00;20.13;69.61
68867;SHT30;56451;44.804;20.476;2023-06-04T03:10:26;20.10;69.66
68867;SHT30;56451;44.804;20.476;2023-06-04T03:12:53;20.17;69.40
68867;SHT30;56451;44.804;20.476;2023-06-04T03:15:18;20.13;69.48
68867;SHT30;56451;44.804;20.476;2023-06-04T03:17:44;20.13;69.39
68867;SHT30;56451;44.804;20.476;2023-06-04T03:20:10;20.12;69.57
68867;SHT30;56451;44.804;20.476;2023-06-04T03:22:36;20.09;69.65
68867;SHT30;56451;44.804;20.476;2023-06-04T03:25:03;20.06;69.72
68867;SHT30;56451;44.804;20.476;2023-06-04T03:27:31;20.04;69.82
68867;SHT30;56451;44.804;20.476;2023-06-04T03:29:58;20.03;69.82
68867;SHT30;56451;44.804;20.476;2023-06-04T03:32:24;20.01;69.86
68867;SHT30;56451;44.804;20.476;2023-06-04T03:34:51;20.00;69.89
68867;SHT30;56451;44.804;20.476;2023-06-04T03:37:17;20.00;69.96
68867;SHT30;56451;44.804;20.476;2023-06-04T03:39:43;19.97;70.08
68867;SHT30;56451;44.804;20.476;2023-06-04T03:42:13;19.96;70.07
68867;SHT30;56451;44.804;20.476;2023-06-04T03:44:40;19.96;70.03
68867;SHT30;56451;44.804;20.476;2023-06-04T03:47:06;19.97;69.86
68867;SHT30;56451;44.804;20.476;2023-06-04T03:49:32;20.00;69.81
68867;SHT30;56451;44.804;20.476;2023-06-04T03:51:59;20.04;69.69
68867;SHT30;56451;44.804;20.476;2023-06-04T03:54:26;20.01;69.72
68867;SHT30;56451;44.804;20.476;2023-06-04T03:56:52;20.00;69.70
68867;SHT30;56451;44.804;20.476;2023-06-04T03:59:18;20.03;69.51
68867;SHT30;56451;44.804;20.476;2023-06-04T04:01:44;20.03;69.44
68867;SHT30;56451;44.804;20.476;2023-06-04T04:04:10;20.06;69.34
68867;SHT30;56451;44.804;20.476;2023-06-04T04:06:36;20.09;69.16
68867;SHT30;56451;44.804;20.476;2023-06-04T04:09:03;20.07;69.08
68867;SHT30;56451;44.804;20.476;2023-06-04T04:11:29;20.04;68.98
68867;SHT30;56451;44.804;20.476;2023-06-04T04:13:56;20.04;68.93
68867;SHT30;56451;44.804;20.476;2023-06-04T04:16:22;20.03;68.96
68867;SHT30;56451;44.804;20.476;2023-06-04T04:18:51;20.06;68.82
68867;SHT30;56451;44.804;20.476;2023-06-04T04:21:17;20.01;68.89
68867;SHT30;56451;44.804;20.476;2023-06-04T04:23:45;20.03;68.91
68867;SHT30;56451;44.804;20.476;2023-06-04T04:26:11;20.00;68.89
68867;SHT30;56451;44.804;20.476;2023-06-04T04:28:37;20.01;68.67
68867;SHT30;56451;44.804;20.476;2023-06-04T04:31:04;19.94;68.62
68867;SHT30;56451;44.804;20.476;2023-06-04T04:33:36;19.94;68.74
68867;SHT30;56451;44.804;20.476;2023-06-04T04:36:06;19.93;68.82
68867;SHT30;56451;44.804;20.476;2023-06-04T04:38:35;19.92;68.83
68867;SHT30;56451;44.804;20.476;2023-06-04T04:41:03;19.93;68.81
68867;SHT30;56451;44.804;20.476;2023-06-04T04:43:31;19.89;68.81
68867;SHT30;56451;44.804;20.476;2023-06-04T04:45:58;19.93;68.79
68867;SHT30;56451;44.804;20.476;2023-06-04T04:48:24;19.93;68.70
68867;SHT30;56451;44.804;20.476;2023-06-04T04:50:52;19.97;68.61
68867;SHT30;56451;44.804;20.476;2023-06-04T04:53:18;19.98;68.41
68867;SHT30;56451;44.804;20.476;2023-06-04T04:55:44;20.03;68.47
68867;SHT30;56451;44.804;20.476;2023-06-04T04:58:10;20.04;68.23
68867;SHT30;56451;44.804;20.476;2023-06-04T05:00:36;20.00;68.31
68867;SHT30;56451;44.804;20.476;2023-06-04T05:03:02;20.07;68.31
68867;SHT30;56451;44.804;20.476;2023-06-04T05:05:28;20.10;68.06
68867;SHT30;56451;44.804;20.476;2023-06-04T05:07:54;20.12;67.92
68867;SHT30;56451;44.804;20.476;2023-06-04T05:10:26;20.14;67.69
68867;SHT30;56451;44.804;20.476;2023-06-04T05:12:58;20.13;67.34
68867;SHT30;56451;44.804;20.476;2023-06-04T05:15:30;20.10;67.32
68867;SHT30;56451;44.804;20.476;2023-06-04T05:17:57;20.10;67.34
68867;SHT30;56451;44.804;20.476;2023-06-04T05:20:29;20.12;67.17
68867;SHT30;56451;44.804;20.476;2023-06-04T05:22:55;20.14;67.24
68867;SHT30;56451;44.804;20.476;2023-06-04T05:25:22;20.17;67.11
68867;SHT30;56451;44.804;20.476;2023-06-04T05:27:48;20.27;66.94
68867;SHT30;56451;44.804;20.476;2023-06-04T05:30:16;20.38;66.71
68867;SHT30;56451;44.804;20.476;2023-06-04T05:32:42;20.48;66.49
68867;SHT30;56451;44.804;20.476;2023-06-04T05:35:11;20.55;66.18
68867;SHT30;56451;44.804;20.476;2023-06-04T05:37:38;20.65;65.96
68867;SHT30;56451;44.804;20.476;2023-06-04T05:40:08;20.72;65.77
68867;SHT30;56451;44.804;20.476;2023-06-04T05:42:35;20.79;65.58
68867;SHT30;56451;44.804;20.476;2023-06-04T05:45:02;20.85;65.53
68867;SHT30;56451;44.804;20.476;2023-06-04T05:47:28;20.93;65.32
68867;SHT30;56451;44.804;20.476;2023-06-04T05:49:56;21.02;65.12
68867;SHT30;56451;44.804;20.476;2023-06-04T05:52:22;21.07;64.94
68867;SHT30;56451;44.804;20.476;2023-06-04T05:54:48;21.11;64.80
68867;SHT30;56451;44.804;20.476;2023-06-04T05:57:14;21.19;65.60
68867;SHT30;56451;44.804;20.476;2023-06-04T05:59:41;21.26;66.21
68867;SHT30;56451;44.804;20.476;2023-06-04T06:02:10;21.31;65.08
68867;SHT30;56451;44.804;20.476;2023-06-04T06:04:38;21.39;65.55
68867;SHT30;56451;44.804;20.476;2023-06-04T06:07:04;21.48;64.46
68867;SHT30;56451;44.804;20.476;2023-06-04T06:09:30;21.48;64.21
68867;SHT30;56451;44.804;20.476;2023-06-04T06:11:56;21.46;64.06
68867;SHT30;56451;44.804;20.476;2023-06-04T06:14:22;21.50;63.94
68867;SHT30;56451;44.804;20.476;2023-06-04T06:16:49;21.50;64.53
68867;SHT30;56451;44.804;20.476;2023-06-04T06:19:16;21.50;63.69
68867;SHT30;56451;44.804;20.476;2023-06-04T06:21:42;21.51;63.62
68867;SHT30;56451;44.804;20.476;2023-06-04T06:24:09;21.47;63.73
68867;SHT30;56451;44.804;20.476;2023-06-04T06:26:35;21.47;63.76
68867;SHT30;56451;44.804;20.476;2023-06-04T06:29:03;21.44;63.78
68867;SHT30;56451;44.804;20.476;2023-06-04T06:31:30;21.47;63.97
68867;SHT30;56451;44.804;20.476;2023-06-04T06:33:56;21.53;63.67
68867;SHT30;56451;44.804;20.476;2023-06-04T06:36:22;21.55;63.84
68867;SHT30;56451;44.804;20.476;2023-06-04T06:38:48;21.60;63.62
68867;SHT30;56451;44.804;20.476;2023-06-04T06:41:14;21.64;63.52
68867;SHT30;56451;44.804;20.476;2023-06-04T06:43:40;21.69;63.55
68867;SHT30;56451;44.804;20.476;2023-06-04T06:46:06;21.75;63.34
68867;SHT30;56451;44.804;20.476;2023-06-04T06:48:32;21.79;63.08
68867;SHT30;56451;44.804;20.476;2023-06-04T06:50:58;21.85;62.91
68867;SHT30;56451;44.804;20.476;2023-06-04T06:53:24;21.88;62.94
68867;SHT30;56451;44.804;20.476;2023-06-04T06:55:50;21.92;62.78
68867;SHT30;56451;44.804;20.476;2023-06-04T06:58:16;21.89;62.96
68867;SHT30;56451;44.804;20.476;2023-06-04T07:00:42;21.95;62.61
68867;SHT30;56451;44.804;20.476;2023-06-04T07:03:08;21.95;62.73
68867;SHT30;56451;44.804;20.476;2023-06-04T07:05:34;21.99;62.65
68867;SHT30;56451;44.804;20.476;2023-06-04T07:08:00;22.04;62.66
68867;SHT30;56451;44.804;20.476;2023-06-04T07:10:27;22.12;62.46
68867;SHT30;56451;44.804;20.476;2023-06-04T07:12:53;22.17;61.93
68867;SHT30;56451;44.804;20.476;2023-06-04T07:15:19;22.25;61.90
68867;SHT30;56451;44.804;20.476;2023-06-04T07:17:45;22.29;61.81
68867;SHT30;56451;44.804;20.476;2023-06-04T07:20:11;22.40;61.70
68867;SHT30;56451;44.804;20.476;2023-06-04T07:22:38;22.43;61.49
68867;SHT30;56451;44.804;20.476;2023-06-04T07:25:04;22.49;61.35
68867;SHT30;56451;44.804;20.476;2023-06-04T07:27:30;22.53;61.44
68867;SHT30;56451;44.804;20.476;2023-06-04T07:29:56;22.54;61.21
68867;SHT30;56451;44.804;20.476;2023-06-04T07:32:22;22.59;61.12
68867;SHT30;56451;44.804;20.476;2023-06-04T07:34:48;22.67;61.01
68867;SHT30;56451;44.804;20.476;2023-06-04T07:37:15;22.71;60.62
68867;SHT30;56451;44.804;20.476;2023-06-04T07:39:41;22.77;60.26
68867;SHT30;56451;44.804;20.476;2023-06-04T07:42:07;22.80;60.05
68867;SHT30;56451;44.804;20.476;2023-06-04T07:44:33;22.83;60.10
68867;SHT30;56451;44.804;20.476;2023-06-04T07:47:00;22.87;60.13
68867;SHT30;56451;44.804;20.476;2023-06-04T07:49:26;22.90;59.90
68867;SHT30;56451;44.804;20.476;2023-06-04T07:51:52;22.93;59.86
68867;SHT30;56451;44.804;20.476;2023-06-04T07:54:18;22.98;59.70
68867;SHT30;56451;44.804;20.476;2023-06-04T07:56:44;23.01;59.48
68867;SHT30;56451;44.804;20.476;2023-06-04T07:59:10;23.07;58.92
68867;SHT30;56451;44.804;20.476;2023-06-04T08:01:36;23.11;58.97
68867;SHT30;56451;44.804;20.476;2023-06-04T08:04:02;23.07;58.81
68867;SHT30;56451;44.804;20.476;2023-06-04T08:06:28;23.05;58.56
68867;SHT30;56451;44.804;20.476;2023-06-04T08:08:54;23.11;58.70
68867;SHT30;56451;44.804;20.476;2023-06-04T08:11:20;23.07;58.79
68867;SHT30;56451;44.804;20.476;2023-06-04T08:13:48;23.10;58.80
68867;SHT30;56451;44.804;20.476;2023-06-04T08:16:14;23.12;58.94
68867;SHT30;56451;44.804;20.476;2023-06-04T08:19:00;23.19;58.93
68867;SHT30;56451;44.804;20.476;2023-06-04T08:21:36;23.26;58.66
68867;SHT30;56451;44.804;20.476;2023-06-04T08:24:08;23.31;58.51
68867;SHT30;56451;44.804;20.476;2023-06-04T08:26:54;23.33;58.36
68867;SHT30;56451;44.804;20.476;2023-06-04T08:29:31;23.37;57.67
68867;SHT30;56451;44.804;20.476;2023-06-04T08:31:58;23.41;57.57
68867;SHT30;56451;44.804;20.476;2023-06-04T08:34:28;23.42;57.58
68867;SHT30;56451;44.804;20.476;2023-06-04T08:36:53;23.43;57.81
68867;SHT30;56451;44.804;20.476;2023-06-04T08:39:20;23.49;57.96
68867;SHT30;56451;44.804;20.476;2023-06-04T08:41:56;23.53;57.30
68867;SHT30;56451;44.804;20.476;2023-06-04T08:44:25;23.52;57.16
68867;SHT30;56451;44.804;20.476;2023-06-04T08:46:52;23.58;56.68
68867;SHT30;56451;44.804;20.476;2023-06-04T08:49:19;23.55;56.75
68867;SHT30;56451;44.804;20.476;2023-06-04T08:51:47;23.59;56.77
68867;SHT30;56451;44.804;20.476;2023-06-04T08:54:14;23.60;56.49
68867;SHT30;56451;44.804;20.476;2023-06-04T08:56:42;23.65;56.45
68867;SHT30;56451;44.804;20.476;2023-06-04T08:59:10;23.65;56.10
68867;SHT30;56451;44.804;20.476;2023-06-04T09:01:36;23.70;56.38
68867;SHT30;56451;44.804;20.476;2023-06-04T09:04:06;23.72;56.28
68867;SHT30;56451;44.804;20.476;2023-06-04T09:06:33;23.74;56.16
68867;SHT30;56451;44.804;20.476;2023-06-04T09:09:01;23.80;55.84
68867;SHT30;56451;44.804;20.476;2023-06-04T09:11:33;23.81;55.70
68867;SHT30;56451;44.804;20.476;2023-06-04T09:14:03;23.87;55.83
68867;SHT30;56451;44.804;20.476;2023-06-04T09:16:31;23.86;56.09
68867;SHT30;56451;44.804;20.476;2023-06-04T09:19:03;23.93;55.40
68867;SHT30;56451;44.804;20.476;2023-06-04T09:21:29;23.93;55.10
68867;SHT30;56451;44.804;20.476;2023-06-04T09:23:57;23.94;55.23
68867;SHT30;56451;44.804;20.476;2023-06-04T09:26:23;24.01;54.90
68867;SHT30;56451;44.804;20.476;2023-06-04T09:28:50;24.08;55.03
68867;SHT30;56451;44.804;20.476;2023-06-04T09:31:18;24.10;54.59
68867;SHT30;56451;44.804;20.476;2023-06-04T09:33:49;24.13;54.54
68867;SHT30;56451;44.804;20.476;2023-06-04T09:36:16;24.14;54.36
68867;SHT30;56451;44.804;20.476;2023-06-04T09:38:42;24.16;54.73
68867;SHT30;56451;44.804;20.476;2023-06-04T09:41:17;24.22;54.35
68867;SHT30;56451;44.804;20.476;2023-06-04T09:43:47;24.29;53.98
68867;SHT30;56451;44.804;20.476;2023-06-04T09:46:15;24.32;54.12
68867;SHT30;56451;44.804;20.476;2023-06-04T09:48:42;24.37;54.04
68867;SHT30;56451;44.804;20.476;2023-06-04T09:51:09;24.38;53.87
68867;SHT30;56451;44.804;20.476;2023-06-04T09:53:37;24.41;53.50
68867;SHT30;56451;44.804;20.476;2023-06-04T09:56:04;24.45;53.65
68867;SHT30;56451;44.804;20.476;2023-06-04T09:58:30;24.49;53.18
68867;SHT30;56451;44.804;20.476;2023-06-04T10:01:00;24.54;53.00
68867;SHT30;56451;44.804;20.476;2023-06-04T10:03:34;24.47;53.33
68867;SHT30;56451;44.804;20.476;2023-06-04T10:06:03;24.48;53.18
68867;SHT30;56451;44.804;20.476;2023-06-04T10:08:30;24.51;53.25
68867;SHT30;56451;44.804;20.476;2023-06-04T10:10:58;24.54;53.19
68867;SHT30;56451;44.804;20.476;2023-06-04T10:13:29;24.61;52.71
68867;SHT30;56451;44.804;20.476;2023-06-04T10:15:57;24.65;52.87
68867;SHT30;56451;44.804;20.476;2023-06-04T10:18:24;24.68;52.54
68867;SHT30;56451;44.804;20.476;2023-06-04T10:20:53;24.66;52.85
68867;SHT30;56451;44.804;20.476;2023-06-04T10:23:20;24.72;53.00
68867;SHT30;56451;44.804;20.476;2023-06-04T10:25:49;24.75;51.95
68867;SHT30;56451;44.804;20.476;2023-06-04T10:28:18;24.75;52.31
68867;SHT30;56451;44.804;20.476;2023-06-04T10:30:47;24.76;52.15
68867;SHT30;56451;44.804;20.476;2023-06-04T10:33:17;24.82;51.87
68867;SHT30;56451;44.804;20.476;2023-06-04T10:35:45;24.85;51.61
68867;SHT30;56451;44.804;20.476;2023-06-04T10:38:13;24.80;51.44
68867;SHT30;56451;44.804;20.476;2023-06-04T10:40:39;24.82;51.74
68867;SHT30;56451;44.804;20.476;2023-06-04T10:43:07;24.87;51.58
68867;SHT30;56451;44.804;20.476;2023-06-04T10:45:33;24.90;52.02
68867;SHT30;56451;44.804;20.476;2023-06-04T10:48:01;24.96;51.74
68867;SHT30;56451;44.804;20.476;2023-06-04T10:50:27;25.00;51.69
68867;SHT30;56451;44.804;20.476;2023-06-04T10:52:54;25.05;51.22
68867;SHT30;56451;44.804;20.476;2023-06-04T10:55:20;25.09;50.94
68867;SHT30;56451;44.804;20.476;2023-06-04T10:57:58;25.10;50.85
68867;SHT30;56451;44.804;20.476;2023-06-04T11:00:35;25.09;50.19
68867;SHT30;56451;44.804;20.476;2023-06-04T11:03:01;25.05;50.32
68867;SHT30;56451;44.804;20.476;2023-06-04T11:05:35;25.03;50.14
68867;SHT30;56451;44.804;20.476;2023-06-04T11:08:01;25.06;50.16
68867;SHT30;56451;44.804;20.476;2023-06-04T11:10:38;25.12;50.00
68867;SHT30;56451;44.804;20.476;2023-06-04T11:13:05;25.16;50.10
68867;SHT30;56451;44.804;20.476;2023-06-04T11:15:51;25.10;49.82
68867;SHT30;56451;44.804;20.476;2023-06-04T11:18:19;25.07;49.36
68867;SHT30;56451;44.804;20.476;2023-06-04T11:20:59;25.07;49.46
68867;SHT30;56451;44.804;20.476;2023-06-04T11:23:25;25.05;49.63
68867;SHT30;56451;44.804;20.476;2023-06-04T11:25:55;25.06;49.68
68867;SHT30;56451;44.804;20.476;2023-06-04T11:28:21;25.13;49.60
68867;SHT30;56451;44.804;20.476;2023-06-04T11:31:00;25.19;49.33
68867;SHT30;56451;44.804;20.476;2023-06-04T11:33:29;25.17;49.30
68867;SHT30;56451;44.804;20.476;2023-06-04T11:35:56;25.17;48.62
68867;SHT30;56451;44.804;20.476;2023-06-04T11:38:22;25.22;48.68
68867;SHT30;56451;44.804;20.476;2023-06-04T11:41:01;25.26;48.32
68867;SHT30;56451;44.804;20.476;2023-06-04T11:43:28;25.24;47.80
68867;SHT30;56451;44.804;20.476;2023-06-04T11:45:54;25.26;48.02
68867;SHT30;56451;44.804;20.476;2023-06-04T11:48:21;25.22;48.15
68867;SHT30;56451;44.804;20.476;2023-06-04T11:50:47;25.23;48.93
68867;SHT30;56451;44.804;20.476;2023-06-04T11:53:13;25.28;48.99
68867;SHT30;56451;44.804;20.476;2023-06-04T11:55:39;25.31;48.42
68867;SHT30;56451;44.804;20.476;2023-06-04T11:58:05;25.35;48.66
68867;SHT30;56451;44.804;20.476;2023-06-04T12:00:32;25.38;48.17
68867;SHT30;56451;44.804;20.476;2023-06-04T12:02:58;25.47;47.85
68867;SHT30;56451;44.804;20.476;2023-06-04T12:05:31;25.57;48.05
68867;SHT30;56451;44.804;20.476;2023-06-04T12:08:10;25.63;47.67
68867;SHT30;56451;44.804;20.476;2023-06-04T12:10:40;25.63;47.63
68867;SHT30;56451;44.804;20.476;2023-06-04T12:13:07;25.63;47.03
68867;SHT30;56451;44.804;20.476;2023-06-04T12:15:33;25.64;47.50
68867;SHT30;56451;44.804;20.476;2023-06-04T12:17:59;25.64;47.53
68867;SHT30;56451;44.804;20.476;2023-06-04T12:23:00;25.72;47.60
68867;SHT30;56451;44.804;20.476;2023-06-04T12:25:27;25.72;47.31
68867;SHT30;56451;44.804;20.476;2023-06-04T12:27:54;25.77;47.49
68867;SHT30;56451;44.804;20.476;2023-06-04T12:30:20;25.80;47.66
68867;SHT30;56451;44.804;20.476;2023-06-04T12:32:46;25.86;47.50
68867;SHT30;56451;44.804;20.476;2023-06-04T12:35:12;25.93;47.37
68867;SHT30;56451;44.804;20.476;2023-06-04T12:37:38;25.95;47.04
68867;SHT30;56451;44.804;20.476;2023-06-04T12:40:05;25.99;46.69
68867;SHT30;56451;44.804;20.476;2023-06-04T12:42:32;26.02;47.05
68867;SHT30;56451;44.804;20.476;2023-06-04T12:44:58;26.09;46.45
68867;SHT30;56451;44.804;20.476;2023-06-04T12:47:24;26.12;46.87
68867;SHT30;56451;44.804;20.476;2023-06-04T12:49:50;26.13;46.54
68867;SHT30;56451;44.804;20.476;2023-06-04T12:52:16;26.13;46.52
68867;SHT30;56451;44.804;20.476;2023-06-04T12:54:43;26.19;46.46
68867;SHT30;56451;44.804;20.476;2023-06-04T12:57:09;26.16;46.61
68867;SHT30;56451;44.804;20.476;2023-06-04T12:59:35;26.15;46.45
68867;SHT30;56451;44.804;20.476;2023-06-04T13:02:01;26.20;46.58
68867;SHT30;56451;44.804;20.476;2023-06-04T13:04:27;26.26;46.54
68867;SHT30;56451;44.804;20.476;2023-06-04T13:06:53;26.28;46.57
68867;SHT30;56451;44.804;20.476;2023-06-04T13:09:24;26.26;46.29
68867;SHT30;56451;44.804;20.476;2023-06-04T13:11:50;26.26;46.48
68867;SHT30;56451;44.804;20.476;2023-06-04T13:14:16;26.33;46.33
68867;SHT30;56451;44.804;20.476;2023-06-04T13:16:43;26.39;46.08
68867;SHT30;56451;44.804;20.476;2023-06-04T13:19:12;26.41;45.93
68867;SHT30;56451;44.804;20.476;2023-06-04T13:21:38;26.37;45.83
68867;SHT30;56451;44.804;20.476;2023-06-04T13:24:04;26.37;46.30
68867;SHT30;56451;44.804;20.476;2023-06-04T13:26:31;26.41;46.03
68867;SHT30;56451;44.804;20.476;2023-06-04T13:28:57;26.43;45.62
68867;SHT30;56451;44.804;20.476;2023-06-04T13:31:23;26.50;45.03
68867;SHT30;56451;44.804;20.476;2023-06-04T13:33:49;26.54;45.16
68867;SHT30;56451;44.804;20.476;2023-06-04T13:36:14;26.64;45.29
68867;SHT30;56451;44.804;20.476;2023-06-04T13:38:40;26.70;45.05
68867;SHT30;56451;44.804;20.476;2023-06-04T13:41:07;26.74;44.63
68867;SHT30;56451;44.804;20.476;2023-06-04T13:43:33;26.78;44.63
68867;SHT30;56451;44.804;20.476;2023-06-04T13:45:59;26.74;44.45
68867;SHT30;56451;44.804;20.476;2023-06-04T13:48:25;26.80;44.31
68867;SHT30;56451;44.804;20.476;2023-06-04T13:50:52;26.84;44.58
68867;SHT30;56451;44.804;20.476;2023-06-04T13:53:19;26.90;44.88
68867;SHT30;56451;44.804;20.476;2023-06-04T13:55:47;26.99;43.80
68867;SHT30;56451;44.804;20.476;2023-06-04T13:58:13;26.98;44.09
68867;SHT30;56451;44.804;20.476;2023-06-04T14:00:40;27.04;44.14
68867;SHT30;56451;44.804;20.476;2023-06-04T14:03:06;27.04;43.45
68867;SHT30;56451;44.804;20.476;2023-06-04T14:05:32;27.08;43.40
68867;SHT30;56451;44.804;20.476;2023-06-04T14:07:58;27.09;43.10
68867;SHT30;56451;44.804;20.476;2023-06-04T14:10:24;27.09;43.43
68867;SHT30;56451;44.804;20.476;2023-06-04T14:12:50;27.08;43.10
68867;SHT30;56451;44.804;20.476;2023-06-04T14:15:16;27.12;43.77
68867;SHT30;56451;44.804;20.476;2023-06-04T14:17:42;27.22;43.60
68867;SHT30;56451;44.804;20.476;2023-06-04T14:20:08;27.32;43.54
68867;SHT30;56451;44.804;20.476;2023-06-04T14:22:38;27.38;43.52
68867;SHT30;56451;44.804;20.476;2023-06-04T14:25:05;27.42;43.37
68867;SHT30;56451;44.804;20.476;2023-06-04T14:27:32;27.47;43.50
68867;SHT30;56451;44.804;20.476;2023-06-04T14:29:58;27.56;43.35
68867;SHT30;56451;44.804;20.476;2023-06-04T14:32:24;27.60;43.20
68867;SHT30;56451;44.804;20.476;2023-06-04T14:34:50;27.60;43.28
68867;SHT30;56451;44.804;20.476;2023-06-04T14:37:16;27.62;43.17
68867;SHT30;56451;44.804;20.476;2023-06-04T14:39:42;27.69;43.28
68867;SHT30;56451;44.804;20.476;2023-06-04T14:42:08;27.71;43.40
68867;SHT30;56451;44.804;20.476;2023-06-04T14:44:34;27.76;43.28
68867;SHT30;56451;44.804;20.476;2023-06-04T14:47:00;27.80;43.06
68867;SHT30;56451;44.804;20.476;2023-06-04T14:49:26;27.87;43.41
68867;SHT30;56451;44.804;20.476;2023-06-04T14:51:52;27.90;43.26
68867;SHT30;56451;44.804;20.476;2023-06-04T14:54:18;27.98;43.18
68867;SHT30;56451;44.804;20.476;2023-06-04T14:56:44;28.01;43.12
68867;SHT30;56451;44.804;20.476;2023-06-04T14:59:10;28.05;42.76
68867;SHT30;56451;44.804;20.476;2023-06-04T15:01:38;28.10;42.93
68867;SHT30;56451;44.804;20.476;2023-06-04T15:04:04;28.15;42.40
68867;SHT30;56451;44.804;20.476;2023-06-04T15:06:31;28.07;42.84
68867;SHT30;56451;44.804;20.476;2023-06-04T15:08:57;28.10;42.93
68867;SHT30;56451;44.804;20.476;2023-06-04T15:11:23;28.07;42.82
68867;SHT30;56451;44.804;20.476;2023-06-04T15:13:49;28.10;42.72
68867;SHT30;56451;44.804;20.476;2023-06-04T15:16:16;28.04;43.07
68867;SHT30;56451;44.804;20.476;2023-06-04T15:18:42;28.00;42.98
68867;SHT30;56451;44.804;20.476;2023-06-04T15:21:08;28.01;43.28
68867;SHT30;56451;44.804;20.476;2023-06-04T15:23:34;28.01;43.27
68867;SHT30;56451;44.804;20.476;2023-06-04T15:26:00;28.03;42.95
68867;SHT30;56451;44.804;20.476;2023-06-04T15:28:26;27.96;43.04